createdAt,value
2019-04-04T00:01:25.472Z,3.00
2019-04-04T00:03:55.393Z,3.43
2019-04-04T00:06:27.090Z,2.97
2019-04-04T00:08:57.160Z,2.97
2019-04-04T00:11:27.348Z,2.80
2019-04-04T00:13:57.205Z,3.00
2019-04-04T00:16:27.060Z,3.60
2019-04-04T00:18:58.497Z,3.03
2019-04-04T00:21:28.490Z,3.60
2019-04-04T00:23:58.399Z,3.13
2019-04-04T00:26:28.225Z,2.60
2019-04-04T00:29:01.193Z,4.00
2019-04-04T00:31:31.302Z,3.10
2019-04-04T00:34:01.285Z,4.10
2019-04-04T00:36:33.872Z,3.70
2019-04-04T00:39:02.889Z,3.80
2019-04-04T00:41:32.709Z,3.47
2019-04-04T00:44:02.658Z,4.10
2019-04-04T00:46:32.699Z,3.60
2019-04-04T00:49:04.516Z,3.90
2019-04-04T00:51:34.430Z,4.20
2019-04-04T00:54:04.672Z,3.50
2019-04-04T00:56:34.699Z,3.87
2019-04-04T00:59:04.503Z,3.37
2019-04-04T01:01:34.643Z,3.77
2019-04-04T01:04:04.761Z,4.03
2019-04-04T01:06:34.820Z,4.03
2019-04-04T01:09:11.504Z,4.60
2019-04-04T01:11:38.307Z,4.33
2019-04-04T01:14:08.077Z,3.80
2019-04-04T01:16:38.040Z,3.67
2019-04-04T01:19:09.686Z,3.70
2019-04-04T01:21:39.651Z,3.57
2019-04-04T01:24:09.529Z,3.50
2019-04-04T01:26:39.437Z,3.60
2019-04-04T01:29:10.911Z,3.53
2019-04-04T01:31:40.947Z,3.47
2019-04-04T01:34:10.647Z,3.33
2019-04-04T01:36:40.703Z,3.60
2019-04-04T01:39:11.171Z,3.30
2019-04-04T01:41:41.077Z,3.53
2019-04-04T01:44:11.742Z,3.40
2019-04-04T01:46:41.834Z,3.53
2019-04-04T01:49:11.633Z,3.50
2019-04-04T01:51:41.356Z,3.97
2019-04-04T01:54:11.166Z,3.73
2019-04-04T01:56:40.965Z,3.77
2019-04-04T01:59:12.281Z,3.77
2019-04-04T02:01:42.366Z,3.33
2019-04-04T02:04:12.351Z,3.53
2019-04-04T02:06:42.554Z,3.80
2019-04-04T02:09:12.321Z,4.30
2019-04-04T02:11:42.022Z,3.87
2019-04-04T02:14:12.502Z,4.30
2019-04-04T02:16:42.392Z,4.17
2019-04-04T02:19:12.348Z,4.60
2019-04-04T02:21:42.208Z,4.67
2019-04-04T02:24:12.012Z,4.50
2019-04-04T02:26:41.913Z,4.50
2019-04-04T02:29:11.806Z,4.33
2019-04-04T02:31:45.633Z,4.57
2019-04-04T02:34:15.365Z,4.57
2019-04-04T02:36:48.727Z,4.77
2019-04-04T02:39:17.940Z,4.50
2019-04-04T02:41:49.087Z,4.40
2019-04-04T02:44:19.033Z,4.70
2019-04-04T02:46:48.844Z,5.47
2019-04-04T02:49:19.918Z,5.60
2019-04-04T02:51:49.887Z,5.87
2019-04-04T02:54:24.207Z,6.47
2019-04-04T02:56:51.178Z,6.20
2019-04-04T02:59:22.039Z,5.80
2019-04-04T03:01:52.146Z,6.60
2019-04-04T03:04:22.168Z,5.57
2019-04-04T03:06:52.129Z,7.57
2019-04-04T03:09:21.771Z,6.37
2019-04-04T03:11:53.634Z,6.80
2019-04-04T03:14:23.277Z,8.20
2019-04-04T03:16:56.355Z,9.53
2019-04-04T03:19:25.140Z,9.70
2019-04-04T03:21:56.080Z,9.40
2019-04-04T03:24:25.946Z,9.37
2019-04-04T03:26:56.648Z,9.87
2019-04-04T03:29:26.722Z,10.27
2019-04-04T03:31:56.469Z,11.37
2019-04-04T03:34:26.415Z,12.83
2019-04-04T03:36:56.222Z,17.00
2019-04-04T03:39:25.988Z,15.87
2019-04-04T03:41:55.626Z,15.23
2019-04-04T03:44:25.564Z,11.50
2019-04-04T03:46:55.384Z,10.73
2019-04-04T03:49:25.171Z,11.27
2019-04-04T03:51:55.105Z,9.87
2019-04-04T03:54:27.401Z,10.40
2019-04-04T03:56:57.272Z,10.57
2019-04-04T03:59:27.131Z,10.37
2019-04-04T04:01:57.317Z,10.47
2019-04-04T04:04:28.430Z,10.10
2019-04-04T04:06:58.282Z,10.33
2019-04-04T04:09:28.141Z,10.77
2019-04-04T04:11:58.019Z,10.20
2019-04-04T04:14:27.918Z,10.63
2019-04-04T04:16:57.886Z,10.17
2019-04-04T04:19:30.994Z,11.47
2019-04-04T04:21:59.321Z,11.70
2019-04-04T04:24:30.334Z,11.73
2019-04-04T04:27:00.275Z,12.60
2019-04-04T04:29:30.821Z,11.50
2019-04-04T04:32:00.613Z,12.00
2019-04-04T04:34:33.328Z,14.27
2019-04-04T04:37:02.455Z,13.33
2019-04-04T04:39:36.071Z,13.70
2019-04-04T04:42:03.677Z,13.77
2019-04-04T04:44:37.850Z,13.37
2019-04-04T04:47:05.393Z,12.50
2019-04-04T04:49:35.635Z,13.50
2019-04-04T04:52:06.014Z,12.83
2019-04-04T04:54:35.849Z,13.07
2019-04-04T04:57:05.618Z,13.83
2019-04-04T04:59:35.327Z,12.63
2019-04-04T05:02:05.361Z,12.70
2019-04-04T05:04:35.277Z,12.67
2019-04-04T05:07:07.465Z,18.87
2019-04-04T05:09:36.884Z,15.13
2019-04-04T05:12:06.752Z,15.03
2019-04-04T05:14:36.385Z,15.00
2019-04-04T05:17:08.066Z,14.83
2019-04-04T05:19:38.112Z,14.97
2019-04-04T05:22:09.264Z,14.50
2019-04-04T05:24:39.652Z,13.70
2019-04-04T05:27:09.725Z,13.93
2019-04-04T05:29:39.473Z,17.70
2019-04-04T05:32:09.388Z,18.47
2019-04-04T05:34:39.303Z,20.53
2019-04-04T05:37:09.467Z,20.23
2019-04-04T05:39:39.684Z,19.67
2019-04-04T05:42:09.640Z,17.00
2019-04-04T05:44:41.608Z,15.17
2019-04-04T05:47:11.462Z,12.50
2019-04-04T05:49:42.549Z,11.27
2019-04-04T05:52:12.472Z,10.60
2019-04-04T05:54:42.584Z,9.40
2019-04-04T05:57:13.707Z,9.20
2019-04-04T05:59:43.533Z,11.57
2019-04-04T06:02:13.411Z,10.50
2019-04-04T06:04:43.194Z,10.70
2019-04-04T06:07:12.895Z,11.10
2019-04-04T06:09:46.087Z,9.97
2019-04-04T06:12:14.295Z,9.57
2019-04-04T06:14:46.052Z,9.40
2019-04-04T06:17:15.617Z,9.83
2019-04-04T06:19:45.457Z,10.80
2019-04-04T06:22:15.217Z,9.20
2019-04-04T06:24:45.030Z,9.20
2019-04-04T06:27:15.037Z,9.20
2019-04-04T06:29:47.566Z,9.10
2019-04-04T06:32:16.350Z,9.63
2019-04-04T06:34:46.290Z,9.10
2019-04-04T06:37:15.971Z,8.30
2019-04-04T06:39:45.882Z,9.47
2019-04-04T06:42:15.832Z,9.47
2019-04-04T06:44:45.695Z,9.97
2019-04-04T06:47:16.569Z,8.53
2019-04-04T06:49:46.390Z,8.87
2019-04-04T06:52:18.137Z,8.97
2019-04-04T06:54:47.321Z,8.87
2019-04-04T06:57:17.281Z,9.73
2019-04-04T06:59:47.316Z,8.57
2019-04-04T07:02:17.113Z,8.03
2019-04-04T07:04:46.882Z,8.33
2019-04-04T07:07:16.699Z,7.13
2019-04-04T07:09:48.205Z,5.67
2019-04-04T07:12:24.294Z,5.07
2019-04-04T07:14:49.710Z,5.27
2019-04-04T07:17:19.675Z,5.23
2019-04-04T07:19:49.461Z,4.20
2019-04-04T07:22:20.630Z,5.37
2019-04-04T07:24:50.768Z,4.60
2019-04-04T07:27:20.740Z,4.10
2019-04-04T07:29:50.651Z,3.90
2019-04-04T07:32:20.539Z,4.23
2019-04-04T07:34:50.195Z,4.23
2019-04-04T07:37:22.141Z,4.30
2019-04-04T07:39:51.756Z,4.07
2019-04-04T07:42:21.710Z,4.57
2019-04-04T07:44:54.379Z,4.10
2019-04-04T07:47:23.139Z,4.83
2019-04-04T07:49:55.010Z,4.10
2019-04-04T07:52:24.728Z,3.40
2019-04-04T07:54:54.630Z,3.00
2019-04-04T07:57:24.396Z,3.43
2019-04-04T07:59:54.279Z,3.93
2019-04-04T08:02:25.435Z,3.53
2019-04-04T08:04:55.214Z,4.40
2019-04-04T08:07:25.299Z,3.80
2019-04-04T08:09:55.078Z,4.03
2019-04-04T08:12:25.009Z,4.20
2019-04-04T08:14:56.225Z,3.30
2019-04-04T08:17:25.954Z,3.13
2019-04-04T08:19:59.962Z,3.43
2019-04-04T08:22:27.474Z,4.30
2019-04-04T08:24:57.358Z,3.60
2019-04-04T08:27:27.291Z,4.77
2019-04-04T08:29:56.956Z,3.93
2019-04-04T08:32:26.777Z,4.63
2019-04-04T08:34:56.727Z,3.50
2019-04-04T08:37:26.613Z,4.03
2019-04-04T08:39:56.407Z,5.60
2019-04-04T08:42:26.178Z,9.83
2019-04-04T08:44:55.958Z,6.80
2019-04-04T08:47:25.746Z,4.17
2019-04-04T08:49:55.880Z,8.83
2019-04-04T08:52:25.803Z,4.97
2019-04-04T08:54:55.722Z,4.73
2019-04-04T08:57:25.607Z,3.80
2019-04-04T08:59:55.451Z,8.63
2019-04-04T09:02:25.281Z,4.43
2019-04-04T09:04:55.134Z,3.77
2019-04-04T09:07:24.797Z,4.07
2019-04-04T09:09:54.610Z,3.87
2019-04-04T09:12:24.468Z,4.43
2019-04-04T09:14:54.309Z,4.77
2019-04-04T09:17:24.260Z,4.63
2019-04-04T09:19:55.438Z,4.47
2019-04-04T09:22:25.272Z,9.63
2019-04-04T09:24:55.345Z,10.67
2019-04-04T09:27:25.060Z,9.77
2019-04-04T09:29:56.226Z,8.57
2019-04-04T09:32:26.324Z,5.00
2019-04-04T09:34:56.065Z,5.03
2019-04-04T09:37:26.126Z,4.10
2019-04-04T09:39:55.955Z,4.93
2019-04-04T09:42:25.833Z,4.70
2019-04-04T09:44:55.568Z,4.30
2019-04-04T09:47:25.324Z,3.67
2019-04-04T09:49:55.102Z,4.03
2019-04-04T09:52:24.932Z,5.10
2019-04-04T09:54:54.874Z,4.93
2019-04-04T09:57:24.656Z,3.97
2019-04-04T09:59:55.414Z,3.90
2019-04-04T10:02:25.250Z,3.53
2019-04-04T10:04:55.556Z,3.70
2019-04-04T10:07:26.785Z,4.20
2019-04-04T10:09:56.763Z,3.83
2019-04-04T10:12:29.405Z,4.10
2019-04-04T10:14:58.058Z,3.70
2019-04-04T10:17:27.831Z,3.93
2019-04-04T10:19:57.589Z,4.10
2019-04-04T10:22:28.536Z,3.80
2019-04-04T10:24:58.311Z,4.20
2019-04-04T10:27:28.079Z,3.63
2019-04-04T10:29:58.026Z,3.80
2019-04-04T10:32:28.009Z,3.73
2019-04-04T10:34:57.819Z,4.27
2019-04-04T10:37:27.434Z,3.97
2019-04-04T10:39:57.270Z,4.43
2019-04-04T10:42:27.374Z,3.77
2019-04-04T10:44:57.325Z,3.67
2019-04-04T10:47:27.180Z,3.70
2019-04-04T10:49:58.501Z,4.13
2019-04-04T10:52:28.497Z,4.60
2019-04-04T10:55:01.520Z,4.00
2019-04-04T10:57:31.084Z,4.47
2019-04-04T11:00:03.244Z,4.03
2019-04-04T11:02:32.439Z,4.67
2019-04-04T11:05:02.505Z,4.10
2019-04-04T11:07:32.317Z,3.77
2019-04-04T11:10:02.196Z,4.43
2019-04-04T11:12:34.227Z,4.17
2019-04-04T11:15:04.239Z,4.80
2019-04-04T11:17:34.156Z,3.90
2019-04-04T11:20:04.185Z,4.23
2019-04-04T11:22:34.160Z,5.00
2019-04-04T11:25:04.302Z,4.67
2019-04-04T11:27:35.484Z,4.47
2019-04-04T11:30:06.339Z,4.03
2019-04-04T11:32:36.207Z,4.90
2019-04-04T11:35:06.933Z,4.63
2019-04-04T11:37:36.647Z,5.00
2019-04-04T11:40:07.000Z,3.93
2019-04-04T11:42:36.738Z,4.30
2019-04-04T11:45:06.871Z,4.50
2019-04-04T11:47:36.632Z,5.00
2019-04-04T11:50:07.304Z,4.30
2019-04-04T11:52:37.134Z,4.30
2019-04-04T11:55:07.234Z,4.30
2019-04-04T11:57:37.097Z,4.40
2019-04-04T12:00:07.485Z,4.57
2019-04-04T12:02:37.560Z,4.93
2019-04-04T12:05:07.500Z,4.60
2019-04-04T12:26:42.604Z,4.77
2019-04-04T12:29:12.342Z,4.70
2019-04-04T12:31:42.233Z,4.73
2019-04-04T12:34:12.052Z,4.40
2019-04-04T12:36:42.042Z,5.40
2019-04-04T12:39:11.874Z,4.90
2019-04-04T12:41:41.787Z,4.43
2019-04-04T12:44:11.763Z,4.73
2019-04-04T12:46:42.603Z,5.10
2019-04-04T12:49:12.464Z,5.03
2019-04-04T12:51:42.279Z,5.17
2019-04-04T12:54:13.432Z,4.13
2019-04-04T12:56:43.214Z,4.87
2019-04-04T12:59:12.992Z,5.03
2019-04-04T13:01:42.674Z,5.03
2019-04-04T13:04:12.578Z,4.30
2019-04-04T13:06:42.602Z,4.63
2019-04-04T13:09:12.405Z,4.97
2019-04-04T13:11:42.331Z,4.60
2019-04-04T13:14:12.307Z,4.77
2019-04-04T13:16:42.201Z,6.13
2019-04-04T13:19:12.105Z,4.37
2019-04-04T13:21:42.020Z,4.87
2019-04-04T13:24:11.937Z,5.47
2019-04-04T13:26:41.847Z,5.33
2019-04-04T13:29:11.641Z,4.97
2019-04-04T13:31:41.619Z,4.60
2019-04-04T13:34:11.359Z,5.27
2019-04-04T13:36:41.180Z,5.00
2019-04-04T13:39:11.552Z,5.50
2019-04-04T13:41:41.529Z,5.70
2019-04-04T13:44:11.347Z,5.70
2019-04-04T13:46:41.183Z,8.30
2019-04-04T13:49:11.156Z,5.63
2019-04-04T13:51:41.083Z,10.57
2019-04-04T13:54:11.031Z,10.70
2019-04-04T13:56:41.022Z,6.33
2019-04-04T13:59:11.070Z,12.93
2019-04-04T14:01:42.958Z,6.07
2019-04-04T14:04:12.533Z,7.70
2019-04-04T14:06:42.358Z,6.10
2019-04-04T14:09:13.627Z,8.17
2019-04-04T14:11:43.399Z,11.87
2019-04-04T14:14:13.219Z,6.00
2019-04-04T14:16:43.395Z,10.93
2019-04-04T14:19:13.148Z,12.57
2019-04-04T14:21:43.080Z,14.47
2019-04-04T14:24:14.338Z,8.63
2019-04-04T14:26:46.308Z,7.93
2019-04-04T14:29:26.576Z,7.67
2019-04-04T14:31:48.800Z,9.37
2019-04-04T14:34:18.554Z,6.00
2019-04-04T14:36:48.279Z,6.70
2019-04-04T14:39:18.050Z,5.70
2019-04-04T14:41:47.923Z,4.80
2019-04-04T14:44:17.814Z,4.73
2019-04-04T14:46:48.301Z,6.10
2019-04-04T14:49:17.982Z,5.00
2019-04-04T14:51:47.865Z,5.97
2019-04-04T14:54:17.851Z,6.03
2019-04-04T14:56:47.669Z,6.50
2019-04-04T14:59:18.592Z,5.33
2019-04-04T15:01:48.452Z,4.67
2019-04-04T15:04:18.517Z,5.10
2019-04-04T15:06:48.265Z,5.37
2019-04-04T15:09:18.054Z,4.90
2019-04-04T15:11:47.967Z,5.43
2019-04-04T15:14:18.011Z,6.83
2019-04-04T15:16:47.826Z,7.43
2019-04-04T15:19:17.712Z,12.10
2019-04-04T15:21:48.891Z,12.53
2019-04-04T15:24:18.733Z,9.07
2019-04-04T15:26:48.610Z,8.27
2019-04-04T15:29:18.369Z,16.30
2019-04-04T15:31:48.176Z,15.03
2019-04-04T15:34:19.483Z,13.10
2019-04-04T15:36:49.390Z,12.00
2019-04-04T15:39:20.570Z,21.23
2019-04-04T15:41:50.341Z,9.70
2019-04-04T15:44:20.338Z,6.63
2019-04-04T15:46:50.224Z,7.97
2019-04-04T15:49:20.012Z,7.13
2019-04-04T15:51:49.903Z,6.67
2019-04-04T15:54:20.958Z,5.57
2019-04-04T15:56:51.122Z,5.87
2019-04-04T15:59:20.906Z,5.77
2019-04-04T16:01:51.954Z,5.60
2019-04-04T16:04:21.750Z,5.63
2019-04-04T16:06:51.673Z,7.43
2019-04-04T16:09:21.744Z,7.63
2019-04-04T16:11:51.503Z,7.37
2019-04-04T16:14:21.321Z,6.57
2019-04-04T16:16:51.072Z,4.90
2019-04-04T16:19:20.925Z,4.70
2019-04-04T16:21:50.842Z,4.47
2019-04-04T16:24:20.753Z,4.40
2019-04-04T16:26:52.927Z,4.73
2019-04-04T16:29:22.754Z,4.87
2019-04-04T16:31:52.676Z,5.50
2019-04-04T16:34:22.538Z,5.53
2019-04-04T16:36:52.523Z,4.93
2019-04-04T16:39:22.474Z,5.87
2019-04-04T16:42:01.598Z,5.90
2019-04-04T16:44:23.791Z,5.73
2019-04-04T16:46:54.874Z,5.73
2019-04-04T16:49:24.702Z,5.43
2019-04-04T16:51:54.459Z,5.07
2019-04-04T16:54:24.320Z,5.77
2019-04-04T16:56:54.014Z,6.13
2019-04-04T16:59:23.748Z,5.57
2019-04-04T17:01:53.549Z,5.63
2019-04-04T17:04:23.227Z,5.47
2019-04-04T17:06:54.687Z,5.43
2019-04-04T17:09:24.654Z,5.93
2019-04-04T17:11:54.316Z,5.90
2019-04-04T17:14:24.245Z,6.83
2019-04-04T17:16:54.089Z,5.83
2019-04-04T17:19:23.890Z,7.03
2019-04-04T17:21:54.662Z,6.07
2019-04-04T17:24:24.499Z,6.37
2019-04-04T17:26:57.340Z,5.47
2019-04-04T17:29:26.201Z,4.73
2019-04-04T17:31:56.033Z,4.33
2019-04-04T17:34:26.311Z,4.83
2019-04-04T17:36:56.410Z,4.40
2019-04-04T17:39:26.298Z,4.73
2019-04-04T17:41:56.181Z,4.87
2019-04-04T17:44:26.291Z,4.50
2019-04-04T17:46:56.282Z,4.57
2019-04-04T17:49:25.980Z,4.33
2019-04-04T17:51:55.931Z,4.73
2019-04-04T17:54:25.817Z,5.00
2019-04-04T17:56:55.864Z,4.43
2019-04-04T17:59:25.816Z,4.73
2019-04-04T18:01:55.679Z,4.20
2019-04-04T18:04:25.422Z,4.10
2019-04-04T18:06:55.225Z,4.47
2019-04-04T18:09:31.624Z,4.60
2019-04-04T18:11:56.927Z,4.80
2019-04-04T18:14:26.742Z,4.87
2019-04-04T18:16:56.628Z,4.93
2019-04-04T18:19:26.376Z,4.30
2019-04-04T18:21:56.479Z,4.60
2019-04-04T18:24:26.435Z,4.00
2019-04-04T18:26:56.103Z,4.57
2019-04-04T18:29:26.042Z,5.27
2019-04-04T18:31:56.997Z,4.30
2019-04-04T18:34:26.886Z,4.63
2019-04-04T18:36:56.732Z,4.70
2019-04-04T18:39:26.776Z,4.00
2019-04-04T18:41:56.533Z,4.33
2019-04-04T18:44:26.366Z,4.20
2019-04-04T18:46:56.269Z,4.50
2019-04-04T18:49:27.230Z,4.60
2019-04-04T18:51:56.958Z,4.80
2019-04-04T18:54:26.973Z,4.30
2019-04-04T18:56:56.839Z,4.30
2019-04-04T18:59:26.919Z,4.57
2019-04-04T19:01:56.725Z,4.43
2019-04-04T19:04:26.533Z,4.77
2019-04-04T19:06:56.306Z,4.67
2019-04-04T19:09:26.097Z,5.07
2019-04-04T19:11:55.849Z,4.63
2019-04-04T19:14:25.729Z,4.63
2019-04-04T19:16:55.472Z,4.50
2019-04-04T19:19:25.286Z,4.73
2019-04-04T19:21:56.282Z,4.40
2019-04-04T19:24:26.286Z,4.47
2019-04-04T19:26:56.486Z,4.83
2019-04-04T19:29:27.525Z,4.80
2019-04-04T19:31:57.440Z,4.97
2019-04-04T19:34:27.135Z,4.40
2019-04-04T19:36:56.987Z,4.50
2019-04-04T19:39:28.254Z,4.53
2019-04-04T19:41:58.139Z,4.43
2019-04-04T19:44:28.661Z,5.73
2019-04-04T19:46:58.511Z,4.50
2019-04-04T19:49:29.637Z,4.57
2019-04-04T19:51:59.442Z,5.17
2019-04-04T19:54:29.220Z,4.80
2019-04-04T19:57:00.383Z,4.97
2019-04-04T19:59:30.210Z,5.20
2019-04-04T20:01:59.932Z,4.60
2019-04-04T20:04:29.650Z,5.10
2019-04-04T20:06:59.400Z,5.43
2019-04-04T20:09:30.498Z,4.27
2019-04-04T20:12:00.298Z,4.50
2019-04-04T20:14:30.440Z,4.37
2019-04-04T20:17:00.591Z,5.07
2019-04-04T20:19:31.352Z,4.87
2019-04-04T20:22:01.079Z,4.77
2019-04-04T20:24:31.020Z,4.80
2019-04-04T20:27:01.191Z,4.90
2019-04-04T20:29:31.010Z,5.13
2019-04-04T20:32:01.020Z,4.27
2019-04-04T20:34:30.680Z,4.77
2019-04-04T20:37:00.501Z,4.53
2019-04-04T20:39:30.372Z,4.57
2019-04-04T20:42:00.304Z,4.27
2019-04-04T20:44:30.139Z,4.23
2019-04-04T20:46:59.917Z,4.83
2019-04-04T20:49:29.778Z,5.13
2019-04-04T20:51:59.697Z,4.50
2019-04-04T20:54:29.858Z,4.70
2019-04-04T20:56:59.587Z,4.67
2019-04-04T20:59:29.238Z,5.43
2019-04-04T21:01:58.984Z,5.17
2019-04-04T21:04:28.743Z,4.70
2019-04-04T21:06:58.596Z,5.03
2019-04-04T21:09:28.432Z,4.33
2019-04-04T21:11:58.504Z,4.50
2019-04-04T21:14:28.351Z,4.53
2019-04-04T21:16:58.184Z,4.90
2019-04-04T21:19:27.984Z,5.50
2019-04-04T21:21:57.672Z,4.77
2019-04-04T21:24:27.799Z,4.93
2019-04-04T21:26:57.603Z,4.33
2019-04-04T21:29:27.674Z,4.83
2019-04-04T21:31:57.444Z,4.17
2019-04-04T21:34:27.343Z,4.57
2019-04-04T21:36:57.195Z,4.20
2019-04-04T21:39:29.613Z,4.57
2019-04-04T21:41:58.533Z,3.83
2019-04-04T21:44:28.463Z,5.10
2019-04-04T21:46:59.274Z,4.67
2019-04-04T21:49:29.089Z,5.00
2019-04-04T21:51:58.981Z,4.60
2019-04-04T21:54:28.853Z,5.33
2019-04-04T21:56:58.571Z,4.87
2019-04-04T21:59:28.326Z,4.87
2019-04-04T22:01:58.109Z,4.27
2019-04-04T22:04:28.130Z,5.00
2019-04-04T22:06:57.919Z,5.20
2019-04-04T22:09:27.739Z,5.13
2019-04-04T22:11:58.709Z,5.50
2019-04-04T22:14:28.419Z,5.20
2019-04-04T22:16:58.217Z,5.43
2019-04-04T22:19:28.260Z,5.87
2019-04-04T22:21:58.037Z,6.03
2019-04-04T22:24:27.668Z,6.00
2019-04-04T22:26:58.732Z,5.80
2019-04-04T22:29:28.520Z,6.33
2019-04-04T22:31:58.244Z,6.03
2019-04-04T22:34:28.244Z,7.03
2019-04-04T22:36:58.075Z,6.00
2019-04-04T22:39:27.771Z,6.53
2019-04-04T22:41:57.645Z,6.10
2019-04-04T22:44:34.648Z,6.37
2019-04-04T22:46:58.774Z,7.03
2019-04-04T22:49:29.547Z,6.17
2019-04-04T22:51:59.360Z,6.47
2019-04-04T22:54:29.131Z,7.03
2019-04-04T22:56:59.042Z,6.60
2019-04-04T22:59:28.875Z,6.13
2019-04-04T23:01:58.647Z,6.73
2019-04-04T23:04:28.698Z,6.80
2019-04-04T23:06:58.749Z,7.50
2019-04-04T23:09:28.701Z,7.53
2019-04-04T23:11:58.538Z,6.87
2019-04-04T23:14:28.366Z,7.50
2019-04-04T23:16:58.221Z,7.40
2019-04-04T23:19:28.162Z,7.63
2019-04-04T23:21:58.015Z,7.33
2019-04-04T23:24:27.810Z,7.07
2019-04-04T23:26:57.696Z,7.83
2019-04-04T23:29:27.439Z,8.23
2019-04-04T23:31:57.389Z,7.67
2019-04-04T23:34:27.232Z,8.17
2019-04-04T23:36:57.096Z,8.13
2019-04-04T23:39:27.043Z,7.90
2019-04-04T23:41:56.935Z,8.20
2019-04-04T23:44:26.883Z,8.57
2019-04-04T23:46:56.640Z,9.03
2019-04-04T23:49:26.593Z,8.10
2019-04-04T23:51:56.427Z,8.50
2019-04-04T23:54:26.207Z,8.13
2019-04-04T23:56:56.127Z,8.40
2019-04-04T23:59:25.939Z,9.53
